sensor_id;sensor_type;location;lat;lon;timestamp;pressure;altitude;pressure_sealevel;temperature;humidity
21102;BME280;10709;49.006;12.100;2023-08-12T00:01:28;48836.16;;;-146.00;75.06
21102;BME280;10709;49.006;12.100;2023-08-12T00:03:54;48871.41;;;-146.00;75.04
21102;BME280;10709;49.006;12.100;2023-08-12T00:06:21;48855.75;;;-146.00;75.28
21102;BME280;10709;49.006;12.100;2023-08-12T00:08:48;48832.22;;;-146.00;75.38
21102;BME280;10709;49.006;12.100;2023-08-12T00:11:14;48851.81;;;-146.00;75.41
21102;BME280;10709;49.006;12.100;2023-08-12T00:13:41;48863.56;;;-146.00;75.61
21102;BME280;10709;49.006;12.100;2023-08-12T00:16:08;48832.22;;;-146.00;76.00
21102;BME280;10709;49.006;12.100;2023-08-12T00:18:34;48836.16;;;-146.00;76.06
21102;BME280;10709;49.006;12.100;2023-08-12T00:21:06;48844.00;;;-146.00;76.39
21102;BME280;10709;49.006;12.100;2023-08-12T00:23:37;48867.50;;;-146.00;76.57
21102;BME280;10709;49.006;12.100;2023-08-12T00:26:06;48855.75;;;-146.00;76.50
21102;BME280;10709;49.006;12.100;2023-08-12T00:28:33;48842.03;;;-146.00;76.45
21102;BME280;10709;49.006;12.100;2023-08-12T00:31:00;48840.06;;;-146.00;76.61
21102;BME280;10709;49.006;12.100;2023-08-12T00:33:27;48857.69;;;-146.00;76.51
21102;BME280;10709;49.006;12.100;2023-08-12T00:35:54;48830.28;;;-146.00;76.73
21102;BME280;10709;49.006;12.100;2023-08-12T00:38:21;48853.78;;;-146.00;76.47
21102;BME280;10709;49.006;12.100;2023-08-12T00:40:48;48859.66;;;-146.00;76.70
21102;BME280;10709;49.006;12.100;2023-08-12T00:43:15;48855.75;;;-146.00;76.37
21102;BME280;10709;49.006;12.100;2023-08-12T00:45:42;48844.00;;;-146.00;76.62
21102;BME280;10709;49.006;12.100;2023-08-12T00:48:09;48836.16;;;-146.00;76.42
21102;BME280;10709;49.006;12.100;2023-08-12T00:50:40;48877.28;;;-146.00;76.88
21102;BME280;10709;49.006;12.100;2023-08-12T00:53:09;48836.16;;;-146.00;77.10
21102;BME280;10709;49.006;12.100;2023-08-12T00:55:36;48851.81;;;-146.00;77.36
21102;BME280;10709;49.006;12.100;2023-08-12T00:58:03;48849.88;;;-146.00;77.34
21102;BME280;10709;49.006;12.100;2023-08-12T01:00:33;48847.91;;;-146.00;77.68
21102;BME280;10709;49.006;12.100;2023-08-12T01:03:01;48840.06;;;-146.00;77.64
21102;BME280;10709;49.006;12.100;2023-08-12T01:05:29;48883.16;;;-146.00;77.48
21102;BME280;10709;49.006;12.100;2023-08-12T01:07:56;48863.56;;;-146.00;77.62
21102;BME280;10709;49.006;12.100;2023-08-12T01:10:24;48859.66;;;-146.00;77.27
21102;BME280;10709;49.006;12.100;2023-08-12T01:15:49;48847.91;;;-146.00;77.79
21102;BME280;10709;49.006;12.100;2023-08-12T01:18:18;48855.75;;;-146.00;77.68
21102;BME280;10709;49.006;12.100;2023-08-12T01:20:46;48855.75;;;-146.00;77.83
21102;BME280;10709;49.006;12.100;2023-08-12T01:23:14;48857.69;;;-146.00;77.52
21102;BME280;10709;49.006;12.100;2023-08-12T01:25:42;48871.41;;;-146.00;77.95
21102;BME280;10709;49.006;12.100;2023-08-12T01:28:09;48863.56;;;-146.00;77.42
21102;BME280;10709;49.006;12.100;2023-08-12T01:30:39;48851.81;;;-146.00;77.60
21102;BME280;10709;49.006;12.100;2023-08-12T01:34:10;48847.91;;;-146.00;78.12
21102;BME280;10709;49.006;12.100;2023-08-12T01:36:28;48830.28;;;-146.00;77.84
21102;BME280;10709;49.006;12.100;2023-08-12T01:38:59;48847.91;;;-146.00;78.12
21102;BME280;10709;49.006;12.100;2023-08-12T01:41:29;48859.66;;;-146.00;78.23
21102;BME280;10709;49.006;12.100;2023-08-12T01:43:56;48859.66;;;-146.00;78.42
21102;BME280;10709;49.006;12.100;2023-08-12T01:46:22;48847.91;;;-146.00;78.56
21102;BME280;10709;49.006;12.100;2023-08-12T01:48:49;48912.56;;;-146.00;78.96
21102;BME280;10709;49.006;12.100;2023-08-12T01:51:16;48855.75;;;-146.00;78.54
21102;BME280;10709;49.006;12.100;2023-08-12T01:53:42;48828.31;;;-146.00;78.41
21102;BME280;10709;49.006;12.100;2023-08-12T01:56:09;48820.47;;;-146.00;78.29
21102;BME280;10709;49.006;12.100;2023-08-12T01:58:35;48851.81;;;-146.00;78.58
21102;BME280;10709;49.006;12.100;2023-08-12T02:01:02;48891.00;;;-146.00;79.02
21102;BME280;10709;49.006;12.100;2023-08-12T02:03:28;48863.56;;;-146.00;79.25
21102;BME280;10709;49.006;12.100;2023-08-12T02:05:55;48867.50;;;-146.00;79.23
21102;BME280;10709;49.006;12.100;2023-08-12T02:08:21;48887.09;;;-146.00;79.01
21102;BME280;10709;49.006;12.100;2023-08-12T02:10:48;48887.09;;;-146.00;79.09
21102;BME280;10709;49.006;12.100;2023-08-12T02:13:14;48879.25;;;-146.00;79.21
21102;BME280;10709;49.006;12.100;2023-08-12T02:15:41;48883.16;;;-146.00;79.30
21102;BME280;10709;49.006;12.100;2023-08-12T02:18:07;48879.25;;;-146.00;79.86
21102;BME280;10709;49.006;12.100;2023-08-12T02:20:34;48877.28;;;-146.00;79.91
21102;BME280;10709;49.006;12.100;2023-08-12T02:23:00;48871.41;;;-146.00;79.91
21102;BME280;10709;49.006;12.100;2023-08-12T02:25:27;48887.09;;;-146.00;80.03
21102;BME280;10709;49.006;12.100;2023-08-12T02:27:53;48871.41;;;-146.00;80.25
21102;BME280;10709;49.006;12.100;2023-08-12T02:30:21;48887.09;;;-146.00;79.94
21102;BME280;10709;49.006;12.100;2023-08-12T02:32:48;48851.81;;;-146.00;80.01
21102;BME280;10709;49.006;12.100;2023-08-12T02:35:18;48883.16;;;-146.00;79.87
21102;BME280;10709;49.006;12.100;2023-08-12T02:37:44;48855.75;;;-146.00;80.06
21102;BME280;10709;49.006;12.100;2023-08-12T02:40:11;48918.44;;;-146.00;80.28
21102;BME280;10709;49.006;12.100;2023-08-12T02:42:38;48863.56;;;-146.00;80.64
21102;BME280;10709;49.006;12.100;2023-08-12T02:45:05;48879.25;;;-146.00;80.55
21102;BME280;10709;49.006;12.100;2023-08-12T02:47:31;48902.75;;;-146.00;80.81
21102;BME280;10709;49.006;12.100;2023-08-12T02:49:58;48898.84;;;-146.00;81.39
21102;BME280;10709;49.006;12.100;2023-08-12T02:52:24;48867.50;;;-146.00;81.30
21102;BME280;10709;49.006;12.100;2023-08-12T02:54:51;48918.44;;;-146.00;81.71
21102;BME280;10709;49.006;12.100;2023-08-12T02:57:17;48853.78;;;-146.00;81.96
21102;BME280;10709;49.006;12.100;2023-08-12T02:59:44;48871.41;;;-146.00;82.13
21102;BME280;10709;49.006;12.100;2023-08-12T03:02:10;48900.78;;;-146.00;82.36
21102;BME280;10709;49.006;12.100;2023-08-12T03:04:36;48894.91;;;-146.00;82.40
21102;BME280;10709;49.006;12.100;2023-08-12T03:07:03;48887.09;;;-146.00;82.42
21102;BME280;10709;49.006;12.100;2023-08-12T03:09:30;48877.28;;;-146.00;82.55
21102;BME280;10709;49.006;12.100;2023-08-12T03:11:58;48938.03;;;-146.00;82.70
21102;BME280;10709;49.006;12.100;2023-08-12T03:14:29;48906.69;;;-146.00;82.93
21102;BME280;10709;49.006;12.100;2023-08-12T03:16:56;48896.88;;;-146.00;82.97
21102;BME280;10709;49.006;12.100;2023-08-12T03:19:23;48885.13;;;-146.00;82.63
21102;BME280;10709;49.006;12.100;2023-08-12T03:21:49;48916.47;;;-146.00;82.73
21102;BME280;10709;49.006;12.100;2023-08-12T03:24:16;48871.41;;;-146.00;82.90
21102;BME280;10709;49.006;12.100;2023-08-12T03:26:42;48892.97;;;-146.00;83.04
21102;BME280;10709;49.006;12.100;2023-08-12T03:29:09;48914.50;;;-146.00;83.16
21102;BME280;10709;49.006;12.100;2023-08-12T03:31:35;48867.50;;;-146.00;83.08
21102;BME280;10709;49.006;12.100;2023-08-12T03:34:02;48953.69;;;-146.00;83.19
21102;BME280;10709;49.006;12.100;2023-08-12T03:36:28;48922.34;;;-146.00;83.51
21102;BME280;10709;49.006;12.100;2023-08-12T03:38:55;48906.69;;;-146.00;83.49
21102;BME280;10709;49.006;12.100;2023-08-12T03:41:21;48926.25;;;-146.00;83.43
21102;BME280;10709;49.006;12.100;2023-08-12T03:43:48;48920.38;;;-146.00;83.80
21102;BME280;10709;49.006;12.100;2023-08-12T03:46:16;48894.91;;;-146.00;83.63
21102;BME280;10709;49.006;12.100;2023-08-12T03:48:43;48900.78;;;-146.00;83.52
21102;BME280;10709;49.006;12.100;2023-08-12T03:51:10;48939.97;;;-146.00;83.49
21102;BME280;10709;49.006;12.100;2023-08-12T03:53:36;48902.75;;;-146.00;83.82
21102;BME280;10709;49.006;12.100;2023-08-12T03:56:03;48918.44;;;-146.00;83.84
21102;BME280;10709;49.006;12.100;2023-08-12T03:58:30;48945.84;;;-146.00;84.13
21102;BME280;10709;49.006;12.100;2023-08-12T04:00:56;48930.19;;;-146.00;84.11
21102;BME280;10709;49.006;12.100;2023-08-12T04:03:23;48912.56;;;-146.00;84.36
21102;BME280;10709;49.006;12.100;2023-08-12T04:05:50;48904.72;;;-146.00;84.32
21102;BME280;10709;49.006;12.100;2023-08-12T04:08:20;48936.06;;;-146.00;84.19
21102;BME280;10709;49.006;12.100;2023-08-12T04:10:47;48910.59;;;-146.00;84.31
21102;BME280;10709;49.006;12.100;2023-08-12T04:13:14;48926.25;;;-146.00;84.42
21102;BME280;10709;49.006;12.100;2023-08-12T04:15:41;48965.44;;;-146.00;84.31
21102;BME280;10709;49.006;12.100;2023-08-12T04:18:07;48918.44;;;-146.00;84.51
21102;BME280;10709;49.006;12.100;2023-08-12T04:20:36;48926.25;;;-146.00;84.97
21102;BME280;10709;49.006;12.100;2023-08-12T04:23:03;48943.91;;;-146.00;84.99
21102;BME280;10709;49.006;12.100;2023-08-12T04:25:29;48953.69;;;-146.00;85.25
21102;BME280;10709;49.006;12.100;2023-08-12T04:27:56;48922.34;;;-146.00;85.69
21102;BME280;10709;49.006;12.100;2023-08-12T04:30:22;48928.22;;;-146.00;85.30
21102;BME280;10709;49.006;12.100;2023-08-12T04:32:49;48941.94;;;-146.00;85.44
21102;BME280;10709;49.006;12.100;2023-08-12T04:35:15;48926.25;;;-146.00;85.68
21102;BME280;10709;49.006;12.100;2023-08-12T04:37:42;48938.03;;;-146.00;85.44
21102;BME280;10709;49.006;12.100;2023-08-12T04:40:09;48945.84;;;-146.00;85.55
21102;BME280;10709;49.006;12.100;2023-08-12T04:42:35;48930.19;;;-146.00;86.04
21102;BME280;10709;49.006;12.100;2023-08-12T04:45:02;48957.59;;;-146.00;86.11
21102;BME280;10709;49.006;12.100;2023-08-12T04:47:29;48941.94;;;-146.00;86.22
21102;BME280;10709;49.006;12.100;2023-08-12T04:49:56;48945.84;;;-146.00;86.20
21102;BME280;10709;49.006;12.100;2023-08-12T04:52:23;48957.59;;;-146.00;86.63
21102;BME280;10709;49.006;12.100;2023-08-12T04:54:53;48961.53;;;-146.00;86.84
21102;BME280;10709;49.006;12.100;2023-08-12T04:57:19;48969.38;;;-146.00;86.94
21102;BME280;10709;49.006;12.100;2023-08-12T04:59:46;48938.03;;;-146.00;87.37
21102;BME280;10709;49.006;12.100;2023-08-12T05:02:12;48928.22;;;-146.00;88.35
21102;BME280;10709;49.006;12.100;2023-08-12T05:04:39;48957.59;;;-146.00;87.86
21102;BME280;10709;49.006;12.100;2023-08-12T05:07:06;48945.84;;;-146.00;88.10
21102;BME280;10709;49.006;12.100;2023-08-12T05:09:33;48969.38;;;-146.00;87.89
21102;BME280;10709;49.006;12.100;2023-08-12T05:11:59;48981.13;;;-146.00;88.01
21102;BME280;10709;49.006;12.100;2023-08-12T05:14:26;48945.84;;;-146.00;87.87
21102;BME280;10709;49.006;12.100;2023-08-12T05:16:52;48977.19;;;-146.00;87.91
21102;BME280;10709;49.006;12.100;2023-08-12T05:19:19;48969.38;;;-146.00;88.30
21102;BME280;10709;49.006;12.100;2023-08-12T05:21:46;48990.91;;;-146.00;88.09
21102;BME280;10709;49.006;12.100;2023-08-12T05:24:12;48963.50;;;-146.00;88.34
21102;BME280;10709;49.006;12.100;2023-08-12T05:26:39;49008.53;;;-146.00;88.36
21102;BME280;10709;49.006;12.100;2023-08-12T05:29:05;48957.59;;;-146.00;88.16
21102;BME280;10709;49.006;12.100;2023-08-12T05:34:19;48949.78;;;-146.00;87.54
21102;BME280;10709;49.006;12.100;2023-08-12T05:36:46;48967.41;;;-146.00;87.43
21102;BME280;10709;49.006;12.100;2023-08-12T05:39:13;48957.59;;;-146.00;87.22
21102;BME280;10709;49.006;12.100;2023-08-12T05:41:40;48965.44;;;-146.00;87.17
21102;BME280;10709;49.006;12.100;2023-08-12T05:44:07;48939.97;;;-146.00;87.00
21102;BME280;10709;49.006;12.100;2023-08-12T05:46:33;48965.44;;;-146.00;86.48
21102;BME280;10709;49.006;12.100;2023-08-12T05:49:00;48938.03;;;-146.00;86.20
21102;BME280;10709;49.006;12.100;2023-08-12T05:51:27;48945.84;;;-146.00;86.01
21102;BME280;10709;49.006;12.100;2023-08-12T05:53:56;48941.94;;;-146.00;86.31
21102;BME280;10709;49.006;12.100;2023-08-12T05:56:23;48922.34;;;-146.00;85.89
21102;BME280;10709;49.006;12.100;2023-08-12T05:58:50;48916.47;;;-146.00;85.89
21102;BME280;10709;49.006;12.100;2023-08-12T06:04:27;48975.25;;;-146.00;85.80
21102;BME280;10709;49.006;12.100;2023-08-12T06:06:57;48965.44;;;-146.00;85.10
21102;BME280;10709;49.006;12.100;2023-08-12T06:09:31;48928.22;;;-146.00;83.65
21102;BME280;10709;49.006;12.100;2023-08-12T06:11:58;48910.59;;;-146.00;84.27
21102;BME280;10709;49.006;12.100;2023-08-12T06:14:25;48953.69;;;-146.00;84.05
21102;BME280;10709;49.006;12.100;2023-08-12T06:17:01;48939.97;;;-146.00;83.33
21102;BME280;10709;49.006;12.100;2023-08-12T06:19:36;48904.72;;;-146.00;82.96
21102;BME280;10709;49.006;12.100;2023-08-12T06:22:06;48906.69;;;-146.00;81.94
21102;BME280;10709;49.006;12.100;2023-08-12T06:24:33;48938.03;;;-146.00;81.89
21102;BME280;10709;49.006;12.100;2023-08-12T06:27:03;48906.69;;;-146.00;80.85
21102;BME280;10709;49.006;12.100;2023-08-12T06:29:36;48934.09;;;-146.00;80.58
21102;BME280;10709;49.006;12.100;2023-08-12T06:32:10;48894.91;;;-146.00;80.03
21102;BME280;10709;49.006;12.100;2023-08-12T06:34:43;48892.97;;;-146.00;78.88
21102;BME280;10709;49.006;12.100;2023-08-12T06:37:13;48871.41;;;-146.00;78.87
21102;BME280;10709;49.006;12.100;2023-08-12T06:39:54;48879.25;;;-146.00;77.94
21102;BME280;10709;49.006;12.100;2023-08-12T06:42:25;48863.56;;;-146.00;77.51
21102;BME280;10709;49.006;12.100;2023-08-12T06:44:58;48877.28;;;-146.00;77.26
21102;BME280;10709;49.006;12.100;2023-08-12T06:47:25;48883.16;;;-146.00;76.18
21102;BME280;10709;49.006;12.100;2023-08-12T06:49:57;48877.28;;;-146.00;76.40
21102;BME280;10709;49.006;12.100;2023-08-12T06:55:06;48847.91;;;-146.00;75.26
21102;BME280;10709;49.006;12.100;2023-08-12T06:57:33;48871.41;;;-146.00;75.17
21102;BME280;10709;49.006;12.100;2023-08-12T07:00:01;48847.91;;;-146.00;75.39
21102;BME280;10709;49.006;12.100;2023-08-12T07:07:53;48871.41;;;-146.00;75.04
21102;BME280;10709;49.006;12.100;2023-08-12T07:10:20;48863.56;;;-146.00;74.94
21102;BME280;10709;49.006;12.100;2023-08-12T07:12:49;48871.41;;;-146.00;74.49
21102;BME280;10709;49.006;12.100;2023-08-12T07:15:25;48859.66;;;-146.00;74.05
21102;BME280;10709;49.006;12.100;2023-08-12T07:18:04;48871.41;;;-146.00;73.44
21102;BME280;10709;49.006;12.100;2023-08-12T07:20:37;48844.00;;;-146.00;72.80
21102;BME280;10709;49.006;12.100;2023-08-12T07:23:04;48883.16;;;-146.00;72.34
21102;BME280;10709;49.006;12.100;2023-08-12T07:25:31;48842.03;;;-146.00;72.47
21102;BME280;10709;49.006;12.100;2023-08-12T07:27:59;48851.81;;;-146.00;72.75
21102;BME280;10709;49.006;12.100;2023-08-12T07:30:28;48869.44;;;-146.00;73.77
21102;BME280;10709;49.006;12.100;2023-08-12T07:32:55;48834.19;;;-146.00;72.39
21102;BME280;10709;49.006;12.100;2023-08-12T07:35:22;48883.16;;;-146.00;72.37
21102;BME280;10709;49.006;12.100;2023-08-12T07:37:49;48869.44;;;-146.00;71.67
21102;BME280;10709;49.006;12.100;2023-08-12T07:40:16;48859.66;;;-146.00;71.07
21102;BME280;10709;49.006;12.100;2023-08-12T07:42:43;48840.06;;;-146.00;70.68
21102;BME280;10709;49.006;12.100;2023-08-12T07:45:10;48863.56;;;-146.00;69.25
21102;BME280;10709;49.006;12.100;2023-08-12T07:47:37;48881.22;;;-146.00;69.21
21102;BME280;10709;49.006;12.100;2023-08-12T07:50:06;48844.00;;;-146.00;69.38
21102;BME280;10709;49.006;12.100;2023-08-12T07:52:33;48863.56;;;-146.00;69.14
21102;BME280;10709;49.006;12.100;2023-08-12T07:55:00;48842.03;;;-146.00;67.62
21102;BME280;10709;49.006;12.100;2023-08-12T07:57:27;48875.34;;;-146.00;66.77
21102;BME280;10709;49.006;12.100;2023-08-12T07:59:54;48861.63;;;-146.00;66.07
21102;BME280;10709;49.006;12.100;2023-08-12T08:02:20;48892.97;;;-146.00;66.24
21102;BME280;10709;49.006;12.100;2023-08-12T08:04:47;48892.97;;;-146.00;64.73
21102;BME280;10709;49.006;12.100;2023-08-12T08:07:16;48859.66;;;-146.00;66.90
21102;BME280;10709;49.006;12.100;2023-08-12T08:09:45;48863.56;;;-146.00;67.43
21102;BME280;10709;49.006;12.100;2023-08-12T08:12:13;48857.69;;;-146.00;68.16
21102;BME280;10709;49.006;12.100;2023-08-12T08:14:41;48871.41;;;-146.00;67.82
21102;BME280;10709;49.006;12.100;2023-08-12T08:17:14;48863.56;;;-146.00;69.34
21102;BME280;10709;49.006;12.100;2023-08-12T08:19:41;48871.41;;;-146.00;69.08
21102;BME280;10709;49.006;12.100;2023-08-12T08:24:58;48855.75;;;-146.00;69.90
21102;BME280;10709;49.006;12.100;2023-08-12T08:27:27;48844.00;;;-146.00;69.89
21102;BME280;10709;49.006;12.100;2023-08-12T08:29:54;48847.91;;;-146.00;69.28
21102;BME280;10709;49.006;12.100;2023-08-12T08:32:24;48869.44;;;-146.00;70.44
21102;BME280;10709;49.006;12.100;2023-08-12T08:34:57;48844.00;;;-146.00;69.87
21102;BME280;10709;49.006;12.100;2023-08-12T08:37:36;48851.81;;;-146.00;71.14
21102;BME280;10709;49.006;12.100;2023-08-12T08:40:06;48863.56;;;-146.00;69.87
21102;BME280;10709;49.006;12.100;2023-08-12T08:42:37;48877.28;;;-146.00;69.95
21102;BME280;10709;49.006;12.100;2023-08-12T08:45:08;48887.09;;;-146.00;71.33
21102;BME280;10709;49.006;12.100;2023-08-12T08:47:39;48871.41;;;-146.00;70.63
21102;BME280;10709;49.006;12.100;2023-08-12T08:50:08;48894.91;;;-146.00;70.13
21102;BME280;10709;49.006;12.100;2023-08-12T08:52:37;48877.28;;;-146.00;67.62
21102;BME280;10709;49.006;12.100;2023-08-12T08:55:04;48871.41;;;-146.00;67.97
21102;BME280;10709;49.006;12.100;2023-08-12T08:57:34;48871.41;;;-146.00;67.37
21102;BME280;10709;49.006;12.100;2023-08-12T09:00:06;48891.00;;;-146.00;66.91
21102;BME280;10709;49.006;12.100;2023-08-12T09:02:44;48877.28;;;-146.00;65.86
21102;BME280;10709;49.006;12.100;2023-08-12T09:05:13;48879.25;;;-146.00;66.15
21102;BME280;10709;49.006;12.100;2023-08-12T09:07:42;48879.25;;;-146.00;66.90
21102;BME280;10709;49.006;12.100;2023-08-12T09:10:10;48883.16;;;-146.00;65.71
21102;BME280;10709;49.006;12.100;2023-08-12T09:12:41;48892.97;;;-146.00;65.04
21102;BME280;10709;49.006;12.100;2023-08-12T09:15:09;48867.50;;;-146.00;65.17
21102;BME280;10709;49.006;12.100;2023-08-12T09:17:37;48891.00;;;-146.00;65.96
21102;BME280;10709;49.006;12.100;2023-08-12T09:20:05;48844.00;;;-146.00;65.40
21102;BME280;10709;49.006;12.100;2023-08-12T09:22:43;48853.78;;;-146.00;66.14
21102;BME280;10709;49.006;12.100;2023-08-12T09:25:10;48879.25;;;-146.00;64.60
21102;BME280;10709;49.006;12.100;2023-08-12T09:27:37;48894.91;;;-146.00;64.73
21102;BME280;10709;49.006;12.100;2023-08-12T09:30:05;48851.81;;;-146.00;65.83
21102;BME280;10709;49.006;12.100;2023-08-12T09:32:33;48859.66;;;-146.00;64.44
21102;BME280;10709;49.006;12.100;2023-08-12T09:35:01;48898.84;;;-146.00;64.12
21102;BME280;10709;49.006;12.100;2023-08-12T09:37:32;48871.41;;;-146.00;63.06
21102;BME280;10709;49.006;12.100;2023-08-12T09:40:00;48859.66;;;-146.00;64.02
21102;BME280;10709;49.006;12.100;2023-08-12T09:42:28;48887.09;;;-146.00;63.83
21102;BME280;10709;49.006;12.100;2023-08-12T09:44:58;48871.41;;;-146.00;64.36
21102;BME280;10709;49.006;12.100;2023-08-12T09:47:25;48879.25;;;-146.00;62.98
21102;BME280;10709;49.006;12.100;2023-08-12T09:49:54;48871.41;;;-146.00;63.20
21102;BME280;10709;49.006;12.100;2023-08-12T09:57:58;48879.25;;;-146.00;62.56
21102;BME280;10709;49.006;12.100;2023-08-12T10:00:26;48879.25;;;-146.00;61.69
21102;BME280;10709;49.006;12.100;2023-08-12T10:02:52;48887.09;;;-146.00;62.61
21102;BME280;10709;49.006;12.100;2023-08-12T10:05:22;48869.44;;;-146.00;62.28
21102;BME280;10709;49.006;12.100;2023-08-12T10:07:53;48865.53;;;-146.00;62.05
21102;BME280;10709;49.006;12.100;2023-08-12T10:10:23;48896.88;;;-146.00;62.19
21102;BME280;10709;49.006;12.100;2023-08-12T10:12:51;48871.41;;;-146.00;61.78
21102;BME280;10709;49.006;12.100;2023-08-12T10:15:19;48883.16;;;-146.00;61.63
21102;BME280;10709;49.006;12.100;2023-08-12T10:17:46;48871.41;;;-146.00;61.13
21102;BME280;10709;49.006;12.100;2023-08-12T10:20:20;48855.75;;;-146.00;59.97
21102;BME280;10709;49.006;12.100;2023-08-12T10:22:50;48863.56;;;-146.00;61.88
21102;BME280;10709;49.006;12.100;2023-08-12T10:25:20;48867.50;;;-146.00;61.86
21102;BME280;10709;49.006;12.100;2023-08-12T10:27:51;48879.25;;;-146.00;61.56
21102;BME280;10709;49.006;12.100;2023-08-12T10:30:20;48879.25;;;-146.00;62.00
21102;BME280;10709;49.006;12.100;2023-08-12T10:32:47;48879.25;;;-146.00;62.02
21102;BME280;10709;49.006;12.100;2023-08-12T10:35:15;48877.28;;;-146.00;62.55
21102;BME280;10709;49.006;12.100;2023-08-12T10:37:42;48871.41;;;-146.00;62.34
21102;BME280;10709;49.006;12.100;2023-08-12T10:40:22;48867.50;;;-146.00;61.99
21102;BME280;10709;49.006;12.100;2023-08-12T10:42:50;48859.66;;;-146.00;61.88
21102;BME280;10709;49.006;12.100;2023-08-12T10:45:17;48914.50;;;-146.00;62.05
21102;BME280;10709;49.006;12.100;2023-08-12T10:47:53;48887.09;;;-146.00;61.51
21102;BME280;10709;49.006;12.100;2023-08-12T10:50:35;48894.91;;;-146.00;61.90
21102;BME280;10709;49.006;12.100;2023-08-12T10:53:28;48855.75;;;-146.00;62.81
21102;BME280;10709;49.006;12.100;2023-08-12T10:55:58;48910.59;;;-146.00;63.09
21102;BME280;10709;49.006;12.100;2023-08-12T10:58:44;48887.09;;;-146.00;61.67
21102;BME280;10709;49.006;12.100;2023-08-12T11:01:18;48889.03;;;-146.00;61.94
21102;BME280;10709;49.006;12.100;2023-08-12T11:03:47;48906.69;;;-146.00;61.34
21102;BME280;10709;49.006;12.100;2023-08-12T11:06:14;48887.09;;;-146.00;61.95
21102;BME280;10709;49.006;12.100;2023-08-12T11:08:51;48881.22;;;-146.00;61.89
21102;BME280;10709;49.006;12.100;2023-08-12T11:14:11;48885.13;;;-146.00;60.43
21102;BME280;10709;49.006;12.100;2023-08-12T11:16:42;48871.41;;;-146.00;60.76
21102;BME280;10709;49.006;12.100;2023-08-12T11:19:09;48887.09;;;-146.00;61.98
21102;BME280;10709;49.006;12.100;2023-08-12T11:21:36;48898.84;;;-146.00;60.37
21102;BME280;10709;49.006;12.100;2023-08-12T11:24:03;48922.34;;;-146.00;60.46
21102;BME280;10709;49.006;12.100;2023-08-12T11:26:31;48926.25;;;-146.00;60.66
21102;BME280;10709;49.006;12.100;2023-08-12T11:28:58;48891.00;;;-146.00;59.71
21102;BME280;10709;49.006;12.100;2023-08-12T11:36:43;48920.38;;;-146.00;60.62
21102;BME280;10709;49.006;12.100;2023-08-12T11:39:10;48922.34;;;-146.00;60.77
21102;BME280;10709;49.006;12.100;2023-08-12T11:41:37;48881.22;;;-146.00;60.59
21102;BME280;10709;49.006;12.100;2023-08-12T11:44:04;48902.75;;;-146.00;59.36
21102;BME280;10709;49.006;12.100;2023-08-12T11:46:35;48902.75;;;-146.00;60.02
21102;BME280;10709;49.006;12.100;2023-08-12T11:49:02;48902.75;;;-146.00;60.17
21102;BME280;10709;49.006;12.100;2023-08-12T11:51:29;48902.75;;;-146.00;59.95
21102;BME280;10709;49.006;12.100;2023-08-12T11:53:56;48914.50;;;-146.00;59.39
21102;BME280;10709;49.006;12.100;2023-08-12T11:56:23;48914.50;;;-146.00;59.58
21102;BME280;10709;49.006;12.100;2023-08-12T11:58:50;48906.69;;;-146.00;59.45
21102;BME280;10709;49.006;12.100;2023-08-12T12:01:19;48871.41;;;-146.00;59.48
21102;BME280;10709;49.006;12.100;2023-08-12T12:03:54;48916.47;;;-146.00;59.15
21102;BME280;10709;49.006;12.100;2023-08-12T12:06:36;48906.69;;;-146.00;59.03
21102;BME280;10709;49.006;12.100;2023-08-12T12:09:05;48906.69;;;-146.00;58.75
21102;BME280;10709;49.006;12.100;2023-08-12T12:11:36;48904.72;;;-146.00;59.17
21102;BME280;10709;49.006;12.100;2023-08-12T12:18:03;48914.50;;;-146.00;59.53
21102;BME280;10709;49.006;12.100;2023-08-12T12:26:56;48920.38;;;-146.00;59.32
21102;BME280;10709;49.006;12.100;2023-08-12T12:29:51;48906.69;;;-146.00;59.01
21102;BME280;10709;49.006;12.100;2023-08-12T13:02:02;48941.94;;;-146.00;58.07
21102;BME280;10709;49.006;12.100;2023-08-12T13:06:09;48930.19;;;-146.00;57.66
21102;BME280;10709;49.006;12.100;2023-08-12T13:40:21;48892.97;;;-146.00;55.94
21102;BME280;10709;49.006;12.100;2023-08-12T14:01:29;48906.69;;;-146.00;54.07
21102;BME280;10709;49.006;12.100;2023-08-12T14:03:58;48908.63;;;-146.00;53.85
21102;BME280;10709;49.006;12.100;2023-08-12T14:18:33;48910.59;;;-146.00;53.24
21102;BME280;10709;49.006;12.100;2023-08-12T14:22:20;48949.78;;;-146.00;55.51
21102;BME280;10709;49.006;12.100;2023-08-12T14:34:12;48926.25;;;-146.00;50.72
21102;BME280;10709;49.006;12.100;2023-08-12T14:57:52;48922.34;;;-146.00;50.94
21102;BME280;10709;49.006;12.100;2023-08-12T15:11:32;48914.50;;;-146.00;52.52
21102;BME280;10709;49.006;12.100;2023-08-12T16:10:37;48938.03;;;-146.00;57.21
21102;BME280;10709;49.006;12.100;2023-08-12T16:17:20;48926.25;;;-146.00;66.59
21102;BME280;10709;49.006;12.100;2023-08-12T16:19:46;48932.13;;;-146.00;70.03
21102;BME280;10709;49.006;12.100;2023-08-12T16:22:16;48930.19;;;-146.00;72.76
21102;BME280;10709;49.006;12.100;2023-08-12T16:24:42;48957.59;;;-146.00;76.79
21102;BME280;10709;49.006;12.100;2023-08-12T16:27:09;48969.38;;;-146.00;77.81
21102;BME280;10709;49.006;12.100;2023-08-12T16:29:36;49018.34;;;-146.00;79.84
21102;BME280;10709;49.006;12.100;2023-08-12T16:42:50;49012.47;;;-146.00;81.84
21102;BME280;10709;49.006;12.100;2023-08-12T16:45:17;48969.38;;;-146.00;83.16
21102;BME280;10709;49.006;12.100;2023-08-12T16:47:44;49032.06;;;-146.00;81.86
21102;BME280;10709;49.006;12.100;2023-08-12T16:50:11;48992.88;;;-146.00;82.41